sensor_id;sensor_type;location;lat;lon;timestamp;pressure;altitude;pressure_sealevel;temperature;humidity
44839;BME280;30576;42.098;24.876;2022-09-21T00:00:29;99799.69;;;15.14;53.62
44839;BME280;30576;42.098;24.876;2022-09-21T00:02:56;99767.59;;;14.94;53.24
44839;BME280;30576;42.098;24.876;2022-09-21T00:05:22;99780.28;;;15.12;53.11
44839;BME280;30576;42.098;24.876;2022-09-21T00:07:48;99773.63;;;14.99;53.24
44839;BME280;30576;42.098;24.876;2022-09-21T00:10:13;99774.78;;;14.90;52.63
44839;BME280;30576;42.098;24.876;2022-09-21T00:12:39;99792.06;;;15.03;52.38
44839;BME280;30576;42.098;24.876;2022-09-21T00:15:06;99767.50;;;14.97;52.99
44839;BME280;30576;42.098;24.876;2022-09-21T00:17:32;99792.69;;;14.83;53.54
44839;BME280;30576;42.098;24.876;2022-09-21T00:19:58;99755.22;;;14.64;52.92
44839;BME280;30576;42.098;24.876;2022-09-21T00:22:25;99798.47;;;14.68;52.95
44839;BME280;30576;42.098;24.876;2022-09-21T00:24:51;99782.63;;;14.65;52.73
44839;BME280;30576;42.098;24.876;2022-09-21T00:27:16;99810.00;;;14.67;52.91
44839;BME280;30576;42.098;24.876;2022-09-21T00:29:42;99772.34;;;14.53;52.41
44839;BME280;30576;42.098;24.876;2022-09-21T00:32:07;99789.13;;;14.53;52.65
44839;BME280;30576;42.098;24.876;2022-09-21T00:34:32;99795.13;;;14.30;53.22
44839;BME280;30576;42.098;24.876;2022-09-21T00:36:58;99769.88;;;14.17;52.69
44839;BME280;30576;42.098;24.876;2022-09-21T00:39:23;99763.72;;;14.14;52.54
44839;BME280;30576;42.098;24.876;2022-09-21T00:41:49;99759.25;;;14.17;52.67
44839;BME280;30576;42.098;24.876;2022-09-21T00:44:30;99775.81;;;14.25;52.85
44839;BME280;30576;42.098;24.876;2022-09-21T00:47:10;99801.22;;;14.33;53.03
44839;BME280;30576;42.098;24.876;2022-09-21T00:49:37;99771.50;;;14.21;53.47
44839;BME280;30576;42.098;24.876;2022-09-21T00:52:06;99750.75;;;14.04;54.02
44839;BME280;30576;42.098;24.876;2022-09-21T00:54:37;99755.13;;;14.06;53.66
44839;BME280;30576;42.098;24.876;2022-09-21T00:57:06;99771.00;;;14.08;52.65
44839;BME280;30576;42.098;24.876;2022-09-21T00:59:34;99781.13;;;13.93;52.59
44839;BME280;30576;42.098;24.876;2022-09-21T01:02:02;99779.38;;;13.92;52.52
44839;BME280;30576;42.098;24.876;2022-09-21T01:04:29;99784.34;;;14.05;52.03
44839;BME280;30576;42.098;24.876;2022-09-21T01:06:59;99757.25;;;13.93;51.13
44839;BME280;30576;42.098;24.876;2022-09-21T01:09:27;99767.66;;;14.01;50.94
44839;BME280;30576;42.098;24.876;2022-09-21T01:30:39;99756.44;;;14.53;47.74
44839;BME280;30576;42.098;24.876;2022-09-21T01:33:25;99755.66;;;14.49;47.46
44839;BME280;30576;42.098;24.876;2022-09-21T01:35:58;99733.53;;;14.48;46.50
44839;BME280;30576;42.098;24.876;2022-09-21T01:38:29;99735.03;;;14.29;47.32
44839;BME280;30576;42.098;24.876;2022-09-21T01:41:02;99771.69;;;14.46;47.72
44839;BME280;30576;42.098;24.876;2022-09-21T01:43:41;99737.59;;;14.32;46.84
44839;BME280;30576;42.098;24.876;2022-09-21T01:46:12;99776.91;;;14.49;47.32
44839;BME280;30576;42.098;24.876;2022-09-21T01:48:43;99733.22;;;14.29;46.77
44839;BME280;30576;42.098;24.876;2022-09-21T01:51:12;99724.13;;;14.38;46.64
44839;BME280;30576;42.098;24.876;2022-09-21T01:53:58;99749.22;;;14.56;46.57
44839;BME280;30576;42.098;24.876;2022-09-21T01:56:31;99741.44;;;14.50;46.98
44839;BME280;30576;42.098;24.876;2022-09-21T02:01:26;99774.72;;;14.92;46.09
44839;BME280;30576;42.098;24.876;2022-09-21T02:03:56;99768.41;;;14.96;46.13
44839;BME280;30576;42.098;24.876;2022-09-21T02:06:24;99722.88;;;14.80;46.17
44839;BME280;30576;42.098;24.876;2022-09-21T02:08:52;99761.13;;;14.74;46.48
44839;BME280;30576;42.098;24.876;2022-09-21T02:11:17;99740.09;;;14.95;46.05
44839;BME280;30576;42.098;24.876;2022-09-21T02:13:44;99775.72;;;15.16;46.13
44839;BME280;30576;42.098;24.876;2022-09-21T02:16:36;99773.31;;;15.35;46.34
44839;BME280;30576;42.098;24.876;2022-09-21T02:22:04;99749.06;;;15.19;46.24
44839;BME280;30576;42.098;24.876;2022-09-21T02:30:04;99753.00;;;15.34;46.13
44839;BME280;30576;42.098;24.876;2022-09-21T02:32:36;99770.56;;;15.38;47.71
44839;BME280;30576;42.098;24.876;2022-09-21T02:35:15;99779.59;;;15.06;48.05
44839;BME280;30576;42.098;24.876;2022-09-21T02:37:53;99745.69;;;14.85;48.90
44839;BME280;30576;42.098;24.876;2022-09-21T02:43:09;99743.38;;;14.75;48.69
44839;BME280;30576;42.098;24.876;2022-09-21T02:45:42;99730.53;;;14.61;49.13
44839;BME280;30576;42.098;24.876;2022-09-21T02:49:14;99779.66;;;15.04;48.07
44839;BME280;30576;42.098;24.876;2022-09-21T02:51:28;99755.94;;;14.98;47.69
44839;BME280;30576;42.098;24.876;2022-09-21T02:53:55;99777.69;;;15.11;47.12
44839;BME280;30576;42.098;24.876;2022-09-21T02:56:22;99766.16;;;15.10;47.43
44839;BME280;30576;42.098;24.876;2022-09-21T02:58:51;99785.50;;;15.15;46.56
44839;BME280;30576;42.098;24.876;2022-09-21T03:01:21;99777.09;;;15.01;47.23
44839;BME280;30576;42.098;24.876;2022-09-21T03:03:49;99754.50;;;14.88;47.28
44839;BME280;30576;42.098;24.876;2022-09-21T03:06:14;99785.38;;;14.90;47.03
44839;BME280;30576;42.098;24.876;2022-09-21T03:08:40;99742.34;;;14.80;46.84
44839;BME280;30576;42.098;24.876;2022-09-21T03:11:06;99783.28;;;15.01;47.16
44839;BME280;30576;42.098;24.876;2022-09-21T03:13:31;99793.97;;;15.00;47.32
44839;BME280;30576;42.098;24.876;2022-09-21T03:16:01;99794.78;;;15.02;47.12
44839;BME280;30576;42.098;24.876;2022-09-21T03:18:28;99763.47;;;14.83;47.72
44839;BME280;30576;42.098;24.876;2022-09-21T03:20:53;99765.94;;;14.90;47.32
44839;BME280;30576;42.098;24.876;2022-09-21T03:23:19;99772.16;;;14.89;47.50
44839;BME280;30576;42.098;24.876;2022-09-21T03:25:45;99793.97;;;15.27;47.25
44839;BME280;30576;42.098;24.876;2022-09-21T03:28:11;99755.03;;;14.99;47.23
44839;BME280;30576;42.098;24.876;2022-09-21T03:30:38;99738.06;;;14.75;47.76
44839;BME280;30576;42.098;24.876;2022-09-21T03:33:04;99757.16;;;14.88;48.07
44839;BME280;30576;42.098;24.876;2022-09-21T03:35:30;99767.81;;;14.56;48.12
44839;BME280;30576;42.098;24.876;2022-09-21T03:37:56;99782.03;;;14.55;48.60
44839;BME280;30576;42.098;24.876;2022-09-21T03:40:22;99787.56;;;14.47;48.71
44839;BME280;30576;42.098;24.876;2022-09-21T03:42:48;99758.91;;;14.29;48.89
44839;BME280;30576;42.098;24.876;2022-09-21T03:45:13;99802.22;;;14.61;49.02
44839;BME280;30576;42.098;24.876;2022-09-21T03:47:39;99776.63;;;14.27;49.89
44839;BME280;30576;42.098;24.876;2022-09-21T03:50:05;99803.63;;;14.43;49.94
44839;BME280;30576;42.098;24.876;2022-09-21T03:52:31;99805.28;;;14.45;49.75
44839;BME280;30576;42.098;24.876;2022-09-21T03:54:56;99781.94;;;14.27;50.11
44839;BME280;30576;42.098;24.876;2022-09-21T03:57:22;99805.00;;;14.55;49.90
44839;BME280;30576;42.098;24.876;2022-09-21T03:59:47;99773.88;;;14.30;50.33
44839;BME280;30576;42.098;24.876;2022-09-21T04:02:14;99792.38;;;14.33;49.82
44839;BME280;30576;42.098;24.876;2022-09-21T04:04:40;99768.84;;;14.21;50.36
44839;BME280;30576;42.098;24.876;2022-09-21T04:07:05;99806.50;;;14.35;51.27
44839;BME280;30576;42.098;24.876;2022-09-21T04:09:31;99756.53;;;13.87;51.36
44839;BME280;30576;42.098;24.876;2022-09-21T04:11:56;99799.59;;;13.96;51.93
44839;BME280;30576;42.098;24.876;2022-09-21T04:14:22;99790.97;;;14.21;51.08
44839;BME280;30576;42.098;24.876;2022-09-21T04:16:47;99815.44;;;14.31;51.52
44839;BME280;30576;42.098;24.876;2022-09-21T04:19:13;99771.97;;;14.04;51.74
44839;BME280;30576;42.098;24.876;2022-09-21T04:21:38;99799.00;;;14.18;51.81
44839;BME280;30576;42.098;24.876;2022-09-21T04:24:03;99803.97;;;14.30;50.85
44839;BME280;30576;42.098;24.876;2022-09-21T04:26:33;99821.47;;;14.36;51.82
44839;BME280;30576;42.098;24.876;2022-09-21T04:28:59;99804.41;;;14.15;51.50
44839;BME280;30576;42.098;24.876;2022-09-21T04:31:26;99793.97;;;14.09;52.50
44839;BME280;30576;42.098;24.876;2022-09-21T04:33:54;99816.34;;;14.30;51.72
44839;BME280;30576;42.098;24.876;2022-09-21T04:36:21;99796.59;;;14.40;51.96
44839;BME280;30576;42.098;24.876;2022-09-21T04:38:47;99793.88;;;14.12;52.50
44839;BME280;30576;42.098;24.876;2022-09-21T04:41:13;99790.19;;;14.16;52.56
44839;BME280;30576;42.098;24.876;2022-09-21T04:43:46;99832.09;;;14.36;52.51
44839;BME280;30576;42.098;24.876;2022-09-21T04:46:15;99797.78;;;14.30;52.05
44839;BME280;30576;42.098;24.876;2022-09-21T04:48:41;99798.56;;;14.33;52.35
44839;BME280;30576;42.098;24.876;2022-09-21T04:51:08;99809.81;;;14.42;52.30
44839;BME280;30576;42.098;24.876;2022-09-21T04:53:35;99807.13;;;14.43;52.52
44839;BME280;30576;42.098;24.876;2022-09-21T04:56:02;99805.56;;;14.36;52.60
44839;BME280;30576;42.098;24.876;2022-09-21T04:58:28;99821.03;;;14.51;53.25
44839;BME280;30576;42.098;24.876;2022-09-21T05:00:54;99805.00;;;14.55;52.86
44839;BME280;30576;42.098;24.876;2022-09-21T05:03:20;99799.88;;;14.48;52.79
44839;BME280;30576;42.098;24.876;2022-09-21T05:05:54;99811.56;;;14.74;52.84
44839;BME280;30576;42.098;24.876;2022-09-21T05:08:20;99788.66;;;15.00;53.54
44839;BME280;30576;42.098;24.876;2022-09-21T05:11:10;99782.09;;;15.38;53.62
44839;BME280;30576;42.098;24.876;2022-09-21T05:13:38;99806.47;;;15.78;51.75
44839;BME280;30576;42.098;24.876;2022-09-21T05:16:04;99822.31;;;16.06;51.86
44839;BME280;30576;42.098;24.876;2022-09-21T05:18:29;99792.47;;;15.98;51.95
44839;BME280;30576;42.098;24.876;2022-09-21T05:20:56;99790.38;;;16.06;50.65
44839;BME280;30576;42.098;24.876;2022-09-21T05:23:25;99787.19;;;15.97;49.69
44839;BME280;30576;42.098;24.876;2022-09-21T05:25:51;99788.22;;;16.18;49.31
44839;BME280;30576;42.098;24.876;2022-09-21T05:28:17;99779.63;;;16.09;49.96
44839;BME280;30576;42.098;24.876;2022-09-21T05:30:44;99787.38;;;16.16;49.14
44839;BME280;30576;42.098;24.876;2022-09-21T05:33:14;99810.47;;;16.15;49.29
44839;BME280;30576;42.098;24.876;2022-09-21T05:38:19;99810.13;;;15.74;50.05
44839;BME280;30576;42.098;24.876;2022-09-21T05:40:45;99830.84;;;15.64;50.57
44839;BME280;30576;42.098;24.876;2022-09-21T05:43:15;99806.50;;;15.50;49.88
44839;BME280;30576;42.098;24.876;2022-09-21T05:45:52;99793.38;;;15.45;50.09
44839;BME280;30576;42.098;24.876;2022-09-21T05:48:41;99791.03;;;15.36;50.59
44839;BME280;30576;42.098;24.876;2022-09-21T05:51:27;99812.00;;;15.70;49.85
44839;BME280;30576;42.098;24.876;2022-09-21T06:04:15;99797.97;;;16.17;48.09
44839;BME280;30576;42.098;24.876;2022-09-21T06:06:41;99808.63;;;15.92;48.79
44839;BME280;30576;42.098;24.876;2022-09-21T06:09:06;99821.94;;;15.92;49.28
44839;BME280;30576;42.098;24.876;2022-09-21T06:11:32;99778.78;;;15.84;47.91
44839;BME280;30576;42.098;24.876;2022-09-21T06:13:59;99757.81;;;15.49;48.03
44839;BME280;30576;42.098;24.876;2022-09-21T06:16:25;99797.81;;;15.71;47.66
44839;BME280;30576;42.098;24.876;2022-09-21T06:18:50;99822.09;;;16.13;48.96
44839;BME280;30576;42.098;24.876;2022-09-21T06:21:15;99793.88;;;16.08;47.94
44839;BME280;30576;42.098;24.876;2022-09-21T06:23:41;99783.50;;;15.75;46.64
44839;BME280;30576;42.098;24.876;2022-09-21T06:26:06;99819.16;;;15.95;47.12
44839;BME280;30576;42.098;24.876;2022-09-21T06:28:32;99810.69;;;16.09;47.82
44839;BME280;30576;42.098;24.876;2022-09-21T06:30:57;99780.75;;;15.79;48.22
44839;BME280;30576;42.098;24.876;2022-09-21T06:33:23;99802.31;;;15.69;47.10
44839;BME280;30576;42.098;24.876;2022-09-21T06:35:59;99831.63;;;15.95;47.99
44839;BME280;30576;42.098;24.876;2022-09-21T06:38:26;99801.22;;;15.75;48.20
44839;BME280;30576;42.098;24.876;2022-09-21T06:40:52;99808.09;;;15.82;46.89
44839;BME280;30576;42.098;24.876;2022-09-21T06:43:18;99821.97;;;16.16;48.36
44839;BME280;30576;42.098;24.876;2022-09-21T06:45:54;99826.75;;;16.31;48.29
44839;BME280;30576;42.098;24.876;2022-09-21T06:48:20;99823.59;;;15.96;47.42
44839;BME280;30576;42.098;24.876;2022-09-21T06:50:46;99820.03;;;15.96;46.78
44839;BME280;30576;42.098;24.876;2022-09-21T06:53:12;99832.75;;;16.38;47.36
44839;BME280;30576;42.098;24.876;2022-09-21T06:55:38;99817.31;;;16.22;46.41
44839;BME280;30576;42.098;24.876;2022-09-21T06:58:04;99825.19;;;16.25;47.23
44839;BME280;30576;42.098;24.876;2022-09-21T07:00:30;99813.41;;;16.07;46.29
44839;BME280;30576;42.098;24.876;2022-09-21T07:02:55;99801.16;;;15.78;47.21
44839;BME280;30576;42.098;24.876;2022-09-21T07:05:21;99835.47;;;16.36;47.17
44839;BME280;30576;42.098;24.876;2022-09-21T07:07:46;99818.19;;;16.46;46.99
44839;BME280;30576;42.098;24.876;2022-09-21T07:10:12;99829.28;;;16.59;46.20
44839;BME280;30576;42.098;24.876;2022-09-21T07:12:37;99840.91;;;16.33;45.89
44839;BME280;30576;42.098;24.876;2022-09-21T07:15:03;99844.28;;;16.13;46.63
44839;BME280;30576;42.098;24.876;2022-09-21T07:17:37;99830.03;;;15.89;46.29
44839;BME280;30576;42.098;24.876;2022-09-21T07:20:04;99837.59;;;16.01;45.63
44839;BME280;30576;42.098;24.876;2022-09-21T07:22:31;99834.50;;;15.88;46.61
44839;BME280;30576;42.098;24.876;2022-09-21T07:24:57;99810.91;;;15.78;46.50
44839;BME280;30576;42.098;24.876;2022-09-21T07:27:23;99805.25;;;15.62;46.29
44839;BME280;30576;42.098;24.876;2022-09-21T07:29:50;99828.63;;;16.04;45.82
44839;BME280;30576;42.098;24.876;2022-09-21T07:32:15;99824.75;;;16.13;46.12
44839;BME280;30576;42.098;24.876;2022-09-21T07:34:41;99814.78;;;16.19;46.47
44839;BME280;30576;42.098;24.876;2022-09-21T07:37:07;99812.69;;;16.27;45.12
44839;BME280;30576;42.098;24.876;2022-09-21T07:39:32;99783.13;;;15.86;45.53
44839;BME280;30576;42.098;24.876;2022-09-21T07:41:58;99819.72;;;16.05;45.39
44839;BME280;30576;42.098;24.876;2022-09-21T07:44:24;99835.41;;;16.38;45.26
44839;BME280;30576;42.098;24.876;2022-09-21T07:46:50;99809.97;;;16.53;45.44
44839;BME280;30576;42.098;24.876;2022-09-21T07:49:16;99808.94;;;16.57;44.78
44839;BME280;30576;42.098;24.876;2022-09-21T07:51:42;99803.78;;;16.76;44.56
44839;BME280;30576;42.098;24.876;2022-09-21T07:54:09;99803.97;;;17.39;43.44
44839;BME280;30576;42.098;24.876;2022-09-21T07:56:38;99806.41;;;17.66;42.36
44839;BME280;30576;42.098;24.876;2022-09-21T07:59:04;99788.50;;;17.90;41.75
44839;BME280;30576;42.098;24.876;2022-09-21T08:01:37;99811.44;;;18.15;41.19
44839;BME280;30576;42.098;24.876;2022-09-21T08:04:05;99803.25;;;17.99;40.36
44839;BME280;30576;42.098;24.876;2022-09-21T08:06:32;99804.81;;;17.62;41.45
44839;BME280;30576;42.098;24.876;2022-09-21T08:09:00;99793.78;;;17.49;42.87
44839;BME280;30576;42.098;24.876;2022-09-21T08:11:27;99790.91;;;17.96;42.38
44839;BME280;30576;42.098;24.876;2022-09-21T08:13:56;99786.72;;;17.91;40.73
44839;BME280;30576;42.098;24.876;2022-09-21T08:16:23;99765.47;;;17.87;41.19
44839;BME280;30576;42.098;24.876;2022-09-21T08:18:49;99795.19;;;18.78;41.52
44839;BME280;30576;42.098;24.876;2022-09-21T08:21:16;99786.47;;;19.12;40.88
44839;BME280;30576;42.098;24.876;2022-09-21T08:23:41;99769.59;;;19.29;39.28
44839;BME280;30576;42.098;24.876;2022-09-21T08:26:10;99754.41;;;19.47;39.97
44839;BME280;30576;42.098;24.876;2022-09-21T08:28:36;99771.09;;;19.35;37.81
44839;BME280;30576;42.098;24.876;2022-09-21T08:31:05;99779.41;;;19.11;36.98
44839;BME280;30576;42.098;24.876;2022-09-21T08:33:33;99765.25;;;18.90;38.16
44839;BME280;30576;42.098;24.876;2022-09-21T08:35:59;99768.59;;;18.95;38.42
44839;BME280;30576;42.098;24.876;2022-09-21T08:38:26;99764.53;;;18.87;38.57
44839;BME280;30576;42.098;24.876;2022-09-21T08:40:52;99748.63;;;18.84;37.85
44839;BME280;30576;42.098;24.876;2022-09-21T08:43:33;99774.00;;;18.94;39.75
44839;BME280;30576;42.098;24.876;2022-09-21T08:46:03;99769.88;;;18.68;39.71
44839;BME280;30576;42.098;24.876;2022-09-21T08:48:34;99771.06;;;18.79;38.36
44839;BME280;30576;42.098;24.876;2022-09-21T08:51:05;99752.47;;;18.40;38.45
44839;BME280;30576;42.098;24.876;2022-09-21T08:53:40;99775.78;;;18.55;38.51
44839;BME280;30576;42.098;24.876;2022-09-21T08:56:11;99742.78;;;18.94;39.54
44839;BME280;30576;42.098;24.876;2022-09-21T08:58:38;99736.78;;;19.26;39.14
44839;BME280;30576;42.098;24.876;2022-09-21T09:01:40;99768.59;;;19.67;37.06
44839;BME280;30576;42.098;24.876;2022-09-21T09:20:39;99717.66;;;19.86;37.27
44839;BME280;30576;42.098;24.876;2022-09-21T09:23:12;99709.44;;;19.56;38.03
44839;BME280;30576;42.098;24.876;2022-09-21T09:25:45;99685.13;;;19.25;34.71
44839;BME280;30576;42.098;24.876;2022-09-21T09:28:29;99707.47;;;19.42;34.90
44839;BME280;30576;42.098;24.876;2022-09-21T09:31:44;99707.38;;;19.61;34.79
44839;BME280;30576;42.098;24.876;2022-09-21T09:33:52;99665.38;;;19.45;36.28
44839;BME280;30576;42.098;24.876;2022-09-21T09:36:20;99701.00;;;19.63;37.13
44839;BME280;30576;42.098;24.876;2022-09-21T09:38:59;99673.69;;;19.57;36.60
44839;BME280;30576;42.098;24.876;2022-09-21T09:50:39;99711.97;;;20.10;34.92
44839;BME280;30576;42.098;24.876;2022-09-21T09:53:16;99702.84;;;20.62;33.81
44839;BME280;30576;42.098;24.876;2022-09-21T09:55:48;99677.25;;;20.08;33.35
44839;BME280;30576;42.098;24.876;2022-09-21T09:58:18;99696.94;;;20.07;33.54
44839;BME280;30576;42.098;24.876;2022-09-21T10:00:46;99699.94;;;20.01;32.97
44839;BME280;30576;42.098;24.876;2022-09-21T10:03:22;99688.72;;;19.94;32.67
44839;BME280;30576;42.098;24.876;2022-09-21T10:05:48;99685.53;;;20.03;33.70
44839;BME280;30576;42.098;24.876;2022-09-21T10:11:01;99678.34;;;20.04;33.21
44839;BME280;30576;42.098;24.876;2022-09-21T10:13:32;99679.16;;;20.38;33.60
44839;BME280;30576;42.098;24.876;2022-09-21T10:16:00;99674.66;;;20.23;33.74
44839;BME280;30576;42.098;24.876;2022-09-21T10:18:35;99675.38;;;20.42;32.04
44839;BME280;30576;42.098;24.876;2022-09-21T10:21:06;99675.66;;;20.85;32.43
44839;BME280;30576;42.098;24.876;2022-09-21T10:23:33;99671.97;;;21.02;32.34
44839;BME280;30576;42.098;24.876;2022-09-21T10:26:08;99649.50;;;20.89;30.95
44839;BME280;30576;42.098;24.876;2022-09-21T10:28:35;99674.78;;;20.69;32.03
44839;BME280;30576;42.098;24.876;2022-09-21T10:31:11;99665.78;;;20.86;31.38
44839;BME280;30576;42.098;24.876;2022-09-21T10:38:55;99638.94;;;21.16;31.85
44839;BME280;30576;42.098;24.876;2022-09-21T10:41:21;99630.59;;;21.37;32.06
44839;BME280;30576;42.098;24.876;2022-09-21T10:43:47;99660.50;;;21.45;32.25
44839;BME280;30576;42.098;24.876;2022-09-21T10:46:15;99650.13;;;21.69;33.10
44839;BME280;30576;42.098;24.876;2022-09-21T10:48:44;99646.75;;;21.94;31.84
44839;BME280;30576;42.098;24.876;2022-09-21T10:51:24;99652.00;;;21.67;32.62
44839;BME280;30576;42.098;24.876;2022-09-21T10:53:51;99660.31;;;21.48;32.03
44839;BME280;30576;42.098;24.876;2022-09-21T10:56:17;99650.09;;;21.24;32.25
44839;BME280;30576;42.098;24.876;2022-09-21T11:01:48;99623.50;;;20.75;32.53
44839;BME280;30576;42.098;24.876;2022-09-21T11:13:46;99649.69;;;21.61;34.63
44839;BME280;30576;42.098;24.876;2022-09-21T11:16:06;99646.13;;;21.46;32.23
44839;BME280;30576;42.098;24.876;2022-09-21T11:26:50;99628.97;;;20.57;32.99
44839;BME280;30576;42.098;24.876;2022-09-21T11:42:40;99624.56;;;21.03;32.00
44839;BME280;30576;42.098;24.876;2022-09-21T11:48:27;99626.19;;;20.75;33.25
44839;BME280;30576;42.098;24.876;2022-09-21T11:59:04;99606.06;;;20.20;34.14
44839;BME280;30576;42.098;24.876;2022-09-21T12:12:22;99608.47;;;20.56;34.33
44839;BME280;30576;42.098;24.876;2022-09-21T12:15:15;99607.78;;;20.53;34.38
44839;BME280;30576;42.098;24.876;2022-09-21T12:17:52;99588.47;;;20.16;34.48
44839;BME280;30576;42.098;24.876;2022-09-21T12:23:13;99617.03;;;20.15;33.86
44839;BME280;30576;42.098;24.876;2022-09-21T12:25:45;99594.22;;;19.92;33.94
44839;BME280;30576;42.098;24.876;2022-09-21T12:28:21;99608.22;;;19.97;34.86
44839;BME280;30576;42.098;24.876;2022-09-21T12:30:54;99582.31;;;19.98;34.15
44839;BME280;30576;42.098;24.876;2022-09-21T12:33:46;99611.34;;;20.06;34.48
44839;BME280;30576;42.098;24.876;2022-09-21T12:36:27;99596.81;;;19.94;34.34
44839;BME280;30576;42.098;24.876;2022-09-21T12:39:11;99602.38;;;20.07;34.30
44839;BME280;30576;42.098;24.876;2022-09-21T12:41:46;99564.84;;;19.91;33.30
44839;BME280;30576;42.098;24.876;2022-09-21T12:46:56;99568.47;;;20.21;35.21
44839;BME280;30576;42.098;24.876;2022-09-21T12:49:37;99589.16;;;20.19;34.53
44839;BME280;30576;42.098;24.876;2022-09-21T12:52:05;99575.94;;;20.16;35.35
44839;BME280;30576;42.098;24.876;2022-09-21T12:54:58;99579.47;;;20.01;34.11
44839;BME280;30576;42.098;24.876;2022-09-21T13:00:19;99569.19;;;19.60;36.19
44839;BME280;30576;42.098;24.876;2022-09-21T13:08:11;99605.94;;;19.56;36.01
44839;BME280;30576;42.098;24.876;2022-09-21T13:13:23;99594.66;;;19.51;35.54
44839;BME280;30576;42.098;24.876;2022-09-21T13:15:50;99611.09;;;19.43;35.91
44839;BME280;30576;42.098;24.876;2022-09-21T13:18:18;99601.16;;;19.45;37.21
44839;BME280;30576;42.098;24.876;2022-09-21T13:20:46;99569.38;;;19.23;36.97
44839;BME280;30576;42.098;24.876;2022-09-21T13:23:19;99574.63;;;19.25;37.01
44839;BME280;30576;42.098;24.876;2022-09-21T13:25:58;99580.78;;;19.09;36.72
44839;BME280;30576;42.098;24.876;2022-09-21T13:29:00;99599.84;;;19.37;36.85
44839;BME280;30576;42.098;24.876;2022-09-21T13:36:41;99599.84;;;19.37;36.82
44839;BME280;30576;42.098;24.876;2022-09-21T13:41:33;99564.03;;;19.23;36.23
44839;BME280;30576;42.098;24.876;2022-09-21T13:44:03;99575.88;;;19.18;36.13
44839;BME280;30576;42.098;24.876;2022-09-21T13:51:56;99602.59;;;19.35;37.34
44839;BME280;30576;42.098;24.876;2022-09-21T13:54:27;99559.06;;;19.16;35.90
44839;BME280;30576;42.098;24.876;2022-09-21T13:57:05;99566.44;;;19.10;36.15
44839;BME280;30576;42.098;24.876;2022-09-21T13:59:35;99565.06;;;19.37;35.87
44839;BME280;30576;42.098;24.876;2022-09-21T14:04:47;99568.00;;;19.32;35.43
44839;BME280;30576;42.098;24.876;2022-09-21T14:07:15;99605.34;;;19.51;35.80
44839;BME280;30576;42.098;24.876;2022-09-21T14:09:52;99578.44;;;19.70;35.49
44839;BME280;30576;42.098;24.876;2022-09-21T14:12:22;99601.72;;;19.85;35.32
44839;BME280;30576;42.098;24.876;2022-09-21T14:15:31;99586.78;;;19.48;35.36
44839;BME280;30576;42.098;24.876;2022-09-21T14:23:28;99580.16;;;19.89;34.91
44839;BME280;30576;42.098;24.876;2022-09-21T14:25:59;99544.00;;;19.64;33.43
44839;BME280;30576;42.098;24.876;2022-09-21T14:28:34;99588.59;;;19.97;33.34
44839;BME280;30576;42.098;24.876;2022-09-21T14:31:06;99570.72;;;19.81;32.62
44839;BME280;30576;42.098;24.876;2022-09-21T14:33:42;99607.88;;;20.03;32.50
44839;BME280;30576;42.098;24.876;2022-09-21T14:36:14;99566.94;;;19.52;34.18
44839;BME280;30576;42.098;24.876;2022-09-21T14:38:45;99587.75;;;19.96;32.55
44839;BME280;30576;42.098;24.876;2022-09-21T14:41:16;99577.22;;;19.60;32.41
44839;BME280;30576;42.098;24.876;2022-09-21T14:43:49;99549.94;;;19.20;33.65
44839;BME280;30576;42.098;24.876;2022-09-21T14:52:06;99566.72;;;19.39;33.80
44839;BME280;30576;42.098;24.876;2022-09-21T15:00:22;99591.03;;;19.35;33.38
44839;BME280;30576;42.098;24.876;2022-09-21T15:05:42;99573.47;;;18.95;35.58
44839;BME280;30576;42.098;24.876;2022-09-21T15:10:59;99606.03;;;18.12;38.21
44839;BME280;30576;42.098;24.876;2022-09-21T15:18:48;99655.53;;;18.00;38.42
44839;BME280;30576;42.098;24.876;2022-09-21T15:21:26;99649.72;;;18.11;38.82
44839;BME280;30576;42.098;24.876;2022-09-21T15:23:54;99653.88;;;18.16;38.99
44839;BME280;30576;42.098;24.876;2022-09-21T15:26:28;99656.03;;;17.89;39.12
44839;BME280;30576;42.098;24.876;2022-09-21T15:28:59;99625.97;;;17.84;38.73
44839;BME280;30576;42.098;24.876;2022-09-21T15:31:31;99618.69;;;18.08;37.86
44839;BME280;30576;42.098;24.876;2022-09-21T15:33:58;99676.97;;;18.36;37.92
44839;BME280;30576;42.098;24.876;2022-09-21T15:36:26;99649.13;;;18.23;38.15
44839;BME280;30576;42.098;24.876;2022-09-21T15:38:53;99655.06;;;18.66;37.90
44839;BME280;30576;42.098;24.876;2022-09-21T15:41:38;99684.97;;;19.11;37.27
44839;BME280;30576;42.098;24.876;2022-09-21T15:44:20;99663.47;;;18.95;37.75
44839;BME280;30576;42.098;24.876;2022-09-21T15:46:50;99645.06;;;18.52;37.51
44839;BME280;30576;42.098;24.876;2022-09-21T15:49:19;99620.09;;;18.34;37.61
44839;BME280;30576;42.098;24.876;2022-09-21T15:51:50;99663.69;;;18.54;37.70
44839;BME280;30576;42.098;24.876;2022-09-21T15:54:28;99645.81;;;18.37;38.41
44839;BME280;30576;42.098;24.876;2022-09-21T15:56:58;99681.31;;;18.39;38.15
44839;BME280;30576;42.098;24.876;2022-09-21T15:59:24;99676.00;;;18.56;38.90
44839;BME280;30576;42.098;24.876;2022-09-21T16:01:53;99673.38;;;18.37;40.43
44839;BME280;30576;42.098;24.876;2022-09-21T16:04:21;99671.44;;;17.62;45.16
44839;BME280;30576;42.098;24.876;2022-09-21T16:09:48;99718.13;;;16.87;49.38
44839;BME280;30576;42.098;24.876;2022-09-21T16:12:44;99714.97;;;16.99;49.96
44839;BME280;30576;42.098;24.876;2022-09-21T16:15:21;99699.22;;;16.49;51.63
44839;BME280;30576;42.098;24.876;2022-09-21T16:18:02;99707.09;;;16.04;53.70
44839;BME280;30576;42.098;24.876;2022-09-21T16:20:47;99690.25;;;15.55;54.73
44839;BME280;30576;42.098;24.876;2022-09-21T16:23:20;99694.13;;;15.46;56.38